Time;durP1;ratioP1;P1;durP2;ratioP2;P2;SDS_P1;SDS_P2;PMS_P1;PMS_P2;Temp;Humidity;BMP_temperature;BMP_pressure;BME280_temperature;BME280_humidity;BME280_pressure;Samples;Min_cycle;Max_cycle;Signal;HPM_P1;HPM_P2
2022/05/05 00:00:02;;;;;;;;;29.00;27.67;;;;;;;;5078734;27;45347;-78
2022/05/05 00:02:27;;;;;;;;;25.33;24.00;;;;;;;;5078894;27;45319;-79
2022/05/05 00:04:53;;;;;;;;;29.00;27.00;;;;;;;;5078575;28;45314;-80
2022/05/05 00:07:18;;;;;;;;;23.67;17.67;;;;;;;;5078806;27;45479;-80
2022/05/05 00:09:43;;;;;;;;;26.00;24.33;;;;;;;;5078574;27;45398;-78
2022/05/05 00:14:52;;;;;;;;;26.33;26.33;;;;;;;;5079002;28;45162;-79
2022/05/05 00:17:17;;;;;;;;;30.67;26.33;;;;;;;;5078152;27;45234;-78
2022/05/05 00:19:43;;;;;;;;;29.33;26.33;;;;;;;;5078207;27;45248;-79
2022/05/05 00:22:09;;;;;;;;;23.67;22.67;;;;;;;;5078652;27;45402;-78
2022/05/05 00:24:34;;;;;;;;;25.00;22.67;;;;;;;;5094180;27;45400;-78
2022/05/05 00:27:00;;;;;;;;;29.33;25.00;;;;;;;;5078330;27;45382;-78
2022/05/05 00:29:25;;;;;;;;;23.67;21.33;;;;;;;;5078224;28;45366;-80
2022/05/05 00:31:51;;;;;;;;;24.33;23.67;;;;;;;;5078671;28;45320;-81
2022/05/05 00:34:16;;;;;;;;;32.33;29.67;;;;;;;;5078376;27;45356;-80
2022/05/05 00:36:41;;;;;;;;;30.00;25.67;;;;;;;;5078154;27;45470;-82
2022/05/05 00:39:07;;;;;;;;;26.00;23.00;;;;;;;;5078440;27;45477;-80
2022/05/05 00:41:36;;;;;;;;;33.00;26.33;;;;;;;;5078212;28;45255;-79
2022/05/05 00:44:02;;;;;;;;;25.67;23.33;;;;;;;;5078215;27;45344;-80
2022/05/05 00:46:28;;;;;;;;;33.00;25.67;;;;;;;;5078014;28;45253;-78
2022/05/05 00:48:54;;;;;;;;;30.00;26.33;;;;;;;;5077713;27;45466;-78
2022/05/05 00:51:20;;;;;;;;;29.00;27.67;;;;;;;;5078084;27;45233;-80
2022/05/05 00:53:45;;;;;;;;;32.33;29.33;;;;;;;;5078265;28;45380;-79
2022/05/05 00:56:13;;;;;;;;;32.00;26.33;;;;;;;;5077288;27;46587;-80
2022/05/05 00:58:39;;;;;;;;;37.33;28.00;;;;;;;;5077862;27;45396;-79
2022/05/05 01:01:07;;;;;;;;;28.67;25.33;;;;;;;;5077296;28;45489;-79
2022/05/05 01:03:33;;;;;;;;;28.00;26.33;;;;;;;;5077545;27;45394;-79
2022/05/05 01:05:59;;;;;;;;;25.67;24.33;;;;;;;;5076674;27;45337;-82
2022/05/05 01:08:24;;;;;;;;;31.67;24.33;;;;;;;;5077555;27;45392;-79
2022/05/05 01:10:49;;;;;;;;;30.67;26.67;;;;;;;;5077690;27;45394;-77
2022/05/05 01:13:15;;;;;;;;;25.67;25.00;;;;;;;;5077912;27;45207;-77
2022/05/05 01:15:41;;;;;;;;;24.33;22.33;;;;;;;;5077224;27;45512;-78
2022/05/05 01:18:06;;;;;;;;;34.33;24.67;;;;;;;;5077506;27;45417;-78
2022/05/05 01:20:41;;;;;;;;;31.67;28.67;;;;;;;;5077601;27;45498;-79
2022/05/05 01:23:07;;;;;;;;;33.00;26.00;;;;;;;;5077738;27;45394;-78
2022/05/05 01:28:15;;;;;;;;;31.00;25.67;;;;;;;;5077305;28;45446;-78
2022/05/05 01:30:41;;;;;;;;;27.00;26.00;;;;;;;;5077418;27;45382;-82
2022/05/05 01:33:25;;;;;;;;;20.33;20.33;;;;;;;;5077753;27;45563;-81
2022/05/05 01:35:51;;;;;;;;;33.33;29.33;;;;;;;;5077150;27;45480;-82
2022/05/05 01:38:18;;;;;;;;;30.67;29.00;;;;;;;;5077246;27;45314;-81
2022/05/05 01:40:46;;;;;;;;;35.00;29.00;;;;;;;;5077176;27;45327;-81
2022/05/05 01:43:12;;;;;;;;;42.67;35.00;;;;;;;;5077484;27;45333;-82
2022/05/05 01:45:37;;;;;;;;;24.67;21.33;;;;;;;;5076939;27;45481;-80
2022/05/05 01:48:03;;;;;;;;;29.33;24.00;;;;;;;;5077498;27;45344;-80
2022/05/05 01:50:31;;;;;;;;;26.33;24.00;;;;;;;;5078026;27;45556;-81
2022/05/05 01:52:57;;;;;;;;;26.67;25.00;;;;;;;;5077477;27;45308;-81
2022/05/05 01:55:23;;;;;;;;;29.00;24.67;;;;;;;;5077109;27;45373;-80
2022/05/05 01:57:49;;;;;;;;;22.67;22.67;;;;;;;;5077276;27;45801;-81
2022/05/05 02:00:15;;;;;;;;;24.33;22.67;;;;;;;;5077673;27;45343;-79
2022/05/05 02:02:41;;;;;;;;;33.33;27.00;;;;;;;;5077408;27;45371;-79
2022/05/05 02:05:06;;;;;;;;;28.33;25.67;;;;;;;;5076811;27;46742;-78
2022/05/05 02:07:31;;;;;;;;;27.00;23.33;;;;;;;;5077303;27;45215;-79
2022/05/05 02:09:58;;;;;;;;;30.00;28.67;;;;;;;;5077332;27;45326;-80
2022/05/05 02:12:23;;;;;;;;;26.67;24.00;;;;;;;;5077680;27;45377;-79
2022/05/05 02:14:48;;;;;;;;;31.67;28.67;;;;;;;;5076752;27;46099;-80
2022/05/05 02:17:14;;;;;;;;;36.00;28.33;;;;;;;;5077788;27;45724;-81
2022/05/05 02:19:39;;;;;;;;;29.00;27.67;;;;;;;;5080287;27;45365;-80
2022/05/05 02:22:05;;;;;;;;;30.67;26.00;;;;;;;;5080677;28;45458;-80
2022/05/05 02:24:30;;;;;;;;;28.67;26.67;;;;;;;;5080322;27;47773;-80
2022/05/05 02:26:55;;;;;;;;;29.00;28.00;;;;;;;;5080157;27;45500;-79
2022/05/05 02:29:20;;;;;;;;;31.67;25.67;;;;;;;;5080700;27;45388;-78
2022/05/05 02:31:46;;;;;;;;;33.33;27.00;;;;;;;;5080361;27;45454;-79
2022/05/05 02:34:11;;;;;;;;;33.00;27.67;;;;;;;;5079823;27;46628;-80
2022/05/05 02:39:20;;;;;;;;;34.33;28.67;;;;;;;;5080183;28;45384;-80
2022/05/05 02:41:46;;;;;;;;;27.00;25.33;;;;;;;;5080043;27;45455;-79
2022/05/05 02:44:11;;;;;;;;;28.33;27.67;;;;;;;;5079892;27;46909;-80
2022/05/05 02:46:36;;;;;;;;;27.67;26.00;;;;;;;;5080011;27;45414;-79
2022/05/05 02:49:02;;;;;;;;;34.33;29.00;;;;;;;;5079885;27;45342;-81
2022/05/05 02:51:27;;;;;;;;;33.67;27.00;;;;;;;;5080206;27;45437;-78
2022/05/05 02:56:36;;;;;;;;;35.33;29.00;;;;;;;;5079547;28;45540;-80
2022/05/05 02:59:01;;;;;;;;;33.33;29.33;;;;;;;;5079847;27;45483;-80
2022/05/05 03:01:26;;;;;;;;;36.33;29.00;;;;;;;;5080143;27;45289;-79
2022/05/05 03:03:52;;;;;;;;;34.00;26.00;;;;;;;;5079587;27;46529;-81
2022/05/05 03:06:17;;;;;;;;;33.33;27.33;;;;;;;;5079402;28;45547;-80
2022/05/05 03:08:42;;;;;;;;;30.33;26.67;;;;;;;;5079780;27;45297;-81
2022/05/05 03:11:07;;;;;;;;;38.00;31.00;;;;;;;;5080123;27;45282;-81
2022/05/05 03:13:32;;;;;;;;;33.00;28.33;;;;;;;;5079425;27;45586;-82
2022/05/05 03:15:58;;;;;;;;;33.33;29.67;;;;;;;;5079649;27;45391;-78
2022/05/05 03:18:23;;;;;;;;;35.33;30.33;;;;;;;;5079388;27;45463;-79
2022/05/05 03:20:49;;;;;;;;;36.67;30.33;;;;;;;;5079734;27;45479;-81
2022/05/05 03:23:14;;;;;;;;;36.33;30.00;;;;;;;;5076445;27;46124;-78
2022/05/05 03:25:39;;;;;;;;;36.00;29.33;;;;;;;;5064760;28;45351;-79
2022/05/05 03:28:05;;;;;;;;;30.67;27.33;;;;;;;;5064399;27;45373;-78
2022/05/05 03:30:30;;;;;;;;;31.00;27.67;;;;;;;;5058513;28;45451;-79
2022/05/05 03:32:55;;;;;;;;;34.00;29.00;;;;;;;;5058848;28;45467;-79
2022/05/05 03:35:20;;;;;;;;;37.33;31.67;;;;;;;;5058818;28;45433;-79
2022/05/05 03:37:46;;;;;;;;;31.33;30.00;;;;;;;;5058979;28;45367;-79
2022/05/05 03:40:11;;;;;;;;;33.00;26.33;;;;;;;;5059320;28;45296;-79
2022/05/05 03:42:36;;;;;;;;;41.67;32.00;;;;;;;;5058708;28;46401;-79
2022/05/05 03:45:02;;;;;;;;;30.00;26.33;;;;;;;;5058727;28;45363;-79
2022/05/05 03:47:27;;;;;;;;;32.67;28.00;;;;;;;;5058874;28;45232;-79
2022/05/05 03:49:52;;;;;;;;;31.33;28.67;;;;;;;;5058843;28;45380;-79
2022/05/05 03:52:17;;;;;;;;;31.33;28.67;;;;;;;;5058582;28;46542;-80
2022/05/05 03:54:42;;;;;;;;;34.33;28.67;;;;;;;;5058401;28;45415;-79
2022/05/05 03:57:08;;;;;;;;;36.67;27.67;;;;;;;;5058818;28;45336;-84
2022/05/05 03:59:34;;;;;;;;;28.33;24.67;;;;;;;;5059156;28;45159;-84
2022/05/05 04:01:59;;;;;;;;;36.67;30.00;;;;;;;;5058410;28;46326;-85
2022/05/05 04:04:25;;;;;;;;;39.33;31.67;;;;;;;;5059054;28;45313;-83
2022/05/05 04:06:50;;;;;;;;;44.67;32.00;;;;;;;;5057404;28;45585;-81
2022/05/05 04:09:15;;;;;;;;;36.67;27.67;;;;;;;;5058822;28;45498;-81
2022/05/05 04:11:41;;;;;;;;;35.33;30.00;;;;;;;;5058007;28;46768;-79
2022/05/05 04:14:06;;;;;;;;;31.67;25.67;;;;;;;;5058020;28;45391;-77
2022/05/05 04:16:31;;;;;;;;;38.33;28.00;;;;;;;;5058383;28;45429;-80
2022/05/05 04:19:03;;;;;;;;;34.67;30.00;;;;;;;;5058546;28;45347;-78
2022/05/05 04:21:28;;;;;;;;;35.33;30.33;;;;;;;;5057886;28;47056;-79
2022/05/05 04:23:53;;;;;;;;;30.67;26.67;;;;;;;;5058300;28;45257;-78
2022/05/05 04:26:19;;;;;;;;;33.67;31.00;;;;;;;;5058261;28;45277;-78
2022/05/05 04:28:46;;;;;;;;;33.00;29.00;;;;;;;;5058184;28;45317;-78
2022/05/05 04:31:13;;;;;;;;;39.00;32.00;;;;;;;;5057928;28;45689;-78
2022/05/05 04:33:39;;;;;;;;;35.67;28.33;;;;;;;;5057770;28;45324;-79
2022/05/05 04:36:04;;;;;;;;;43.00;31.33;;;;;;;;5057809;28;45356;-78
2022/05/05 04:38:30;;;;;;;;;40.33;30.00;;;;;;;;5057844;28;45433;-80
2022/05/05 04:40:55;;;;;;;;;41.33;30.33;;;;;;;;5057837;28;47270;-78
2022/05/05 04:43:20;;;;;;;;;32.00;29.00;;;;;;;;5057455;28;45422;-77
2022/05/05 04:45:45;;;;;;;;;42.67;33.00;;;;;;;;5056576;28;45482;-78
2022/05/05 04:48:11;;;;;;;;;43.33;31.67;;;;;;;;5058204;28;45281;-78
2022/05/05 04:50:36;;;;;;;;;30.67;28.67;;;;;;;;5057304;28;45354;-77
2022/05/05 04:53:01;;;;;;;;;38.00;30.00;;;;;;;;5057703;28;45282;-78
2022/05/05 04:55:26;;;;;;;;;32.00;28.00;;;;;;;;5057401;28;45147;-77
2022/05/05 04:57:51;;;;;;;;;39.33;30.00;;;;;;;;5057599;28;45228;-77
2022/05/05 05:00:17;;;;;;;;;34.33;30.67;;;;;;;;5057568;28;45360;-77
2022/05/05 05:02:42;;;;;;;;;35.33;29.67;;;;;;;;5057154;28;45360;-76
2022/05/05 05:05:08;;;;;;;;;35.33;30.33;;;;;;;;5057569;28;45289;-77
2022/05/05 05:07:33;;;;;;;;;33.00;29.33;;;;;;;;5057632;28;45431;-77
2022/05/05 05:09:58;;;;;;;;;30.67;28.00;;;;;;;;5057164;28;47113;-77
2022/05/05 05:12:24;;;;;;;;;34.00;30.00;;;;;;;;5057410;28;45433;-78
2022/05/05 05:14:49;;;;;;;;;36.67;23.33;;;;;;;;5057300;28;45277;-77
2022/05/05 05:17:15;;;;;;;;;35.00;30.00;;;;;;;;5057578;28;45264;-77
2022/05/05 05:19:40;;;;;;;;;35.33;30.33;;;;;;;;5057168;28;46300;-78
2022/05/05 05:22:05;;;;;;;;;34.00;30.00;;;;;;;;5057102;28;45270;-77
2022/05/05 05:24:31;;;;;;;;;33.67;29.33;;;;;;;;5057232;28;45395;-77
2022/05/05 05:26:56;;;;;;;;;40.33;33.00;;;;;;;;5057327;28;45422;-77
2022/05/05 05:29:21;;;;;;;;;37.00;33.00;;;;;;;;5057036;28;47353;-78
2022/05/05 05:31:47;;;;;;;;;34.00;29.33;;;;;;;;5056817;28;45311;-79
2022/05/05 05:34:12;;;;;;;;;46.33;35.67;;;;;;;;5057382;28;45284;-79
2022/05/05 05:36:37;;;;;;;;;33.33;31.00;;;;;;;;5056828;28;45402;-77
2022/05/05 05:39:03;;;;;;;;;45.67;33.00;;;;;;;;5057092;28;46081;-77
2022/05/05 05:41:28;;;;;;;;;47.00;35.00;;;;;;;;5057018;28;45423;-77
2022/05/05 05:43:53;;;;;;;;;38.00;32.33;;;;;;;;5057021;28;45276;-76
2022/05/05 05:46:18;;;;;;;;;40.33;33.33;;;;;;;;5057410;28;45292;-77
2022/05/05 05:48:44;;;;;;;;;31.33;30.33;;;;;;;;5056463;28;46269;-77
2022/05/05 05:51:09;;;;;;;;;45.00;34.33;;;;;;;;5056809;28;45346;-77
2022/05/05 05:53:34;;;;;;;;;46.67;36.00;;;;;;;;5059874;28;45426;-76
2022/05/05 05:55:59;;;;;;;;;42.67;34.67;;;;;;;;5060255;28;45280;-77
2022/05/05 05:58:24;;;;;;;;;41.00;33.00;;;;;;;;5060371;28;45430;-77
2022/05/05 06:00:50;;;;;;;;;46.00;33.00;;;;;;;;5060386;28;45324;-79
2022/05/05 06:06:03;;;;;;;;;48.00;38.33;;;;;;;;5060368;28;45292;-77
2022/05/05 06:08:28;;;;;;;;;52.33;43.00;;;;;;;;5060065;28;47367;-77
2022/05/05 06:10:53;;;;;;;;;48.33;37.33;;;;;;;;5059979;28;45225;-77
2022/05/05 06:13:19;;;;;;;;;47.67;35.67;;;;;;;;5060390;28;45346;-77
2022/05/05 06:15:44;;;;;;;;;56.00;44.00;;;;;;;;5060174;28;45471;-77
2022/05/05 06:18:09;;;;;;;;;46.67;37.67;;;;;;;;5059982;28;46467;-76
2022/05/05 06:20:34;;;;;;;;;45.33;36.00;;;;;;;;5060003;28;45435;-77
2022/05/05 06:23:00;;;;;;;;;43.00;36.33;;;;;;;;5060064;28;45236;-78
2022/05/05 06:25:25;;;;;;;;;48.33;37.33;;;;;;;;5060304;28;45363;-78
2022/05/05 06:27:51;;;;;;;;;43.00;34.67;;;;;;;;5059910;28;45557;-78
2022/05/05 06:30:17;;;;;;;;;46.00;36.00;;;;;;;;5059918;28;45992;-79
2022/05/05 06:32:43;;;;;;;;;48.00;37.00;;;;;;;;5059852;28;45311;-78
2022/05/05 06:35:09;;;;;;;;;44.67;37.67;;;;;;;;5059835;28;45348;-77
2022/05/05 06:37:34;;;;;;;;;47.67;39.33;;;;;;;;5059402;28;45375;-79
2022/05/05 06:40:01;;;;;;;;;48.33;37.33;;;;;;;;5059751;28;45379;-78
2022/05/05 06:42:27;;;;;;;;;51.67;37.67;;;;;;;;5059888;28;45485;-80
2022/05/05 06:44:52;;;;;;;;;45.00;36.00;;;;;;;;5059934;28;45241;-77
2022/05/05 06:47:18;;;;;;;;;47.00;38.67;;;;;;;;5059197;28;45269;-78
2022/05/05 06:49:43;;;;;;;;;49.00;38.00;;;;;;;;5059670;28;45226;-77
2022/05/05 06:52:08;;;;;;;;;50.33;38.33;;;;;;;;5059353;28;45308;-75
2022/05/05 06:54:33;;;;;;;;;47.33;39.00;;;;;;;;5059614;28;45317;-76
2022/05/05 06:56:58;;;;;;;;;50.00;39.33;;;;;;;;5059209;28;46516;-76
2022/05/05 06:59:24;;;;;;;;;46.67;37.33;;;;;;;;5059399;28;45288;-76
2022/05/05 07:01:52;;;;;;;;;47.00;37.33;;;;;;;;5059495;28;45380;-75
2022/05/05 07:07:03;;;;;;;;;50.00;41.00;;;;;;;;5058838;28;45675;-75
2022/05/05 07:12:11;;;;;;;;;51.33;39.00;;;;;;;;5059503;28;45327;-74
2022/05/05 07:14:37;;;;;;;;;45.33;38.00;;;;;;;;5059272;28;45304;-77
2022/05/05 07:17:02;;;;;;;;;47.33;38.33;;;;;;;;5058975;28;46427;-76
2022/05/05 07:19:27;;;;;;;;;48.33;37.33;;;;;;;;5058948;28;45508;-76
2022/05/05 07:21:52;;;;;;;;;49.67;38.67;;;;;;;;5058875;28;45299;-76
2022/05/05 07:24:18;;;;;;;;;48.00;38.00;;;;;;;;5059308;28;45414;-77
2022/05/05 07:26:43;;;;;;;;;47.33;39.00;;;;;;;;5058748;28;45831;-77
2022/05/05 07:29:08;;;;;;;;;50.00;40.33;;;;;;;;5058932;28;45359;-77
2022/05/05 07:31:34;;;;;;;;;47.67;39.00;;;;;;;;5058957;28;45333;-77
2022/05/05 07:33:59;;;;;;;;;50.00;39.33;;;;;;;;5058976;28;45417;-78
2022/05/05 07:36:24;;;;;;;;;46.33;36.33;;;;;;;;5057126;28;45878;-76
2022/05/05 07:38:49;;;;;;;;;53.33;40.67;;;;;;;;5058727;28;45242;-77
2022/05/05 07:41:15;;;;;;;;;56.67;43.33;;;;;;;;5058837;28;45402;-76
2022/05/05 07:43:40;;;;;;;;;52.33;41.00;;;;;;;;5058737;28;45356;-76
2022/05/05 07:46:05;;;;;;;;;47.00;39.33;;;;;;;;5058550;28;45481;-77
2022/05/05 07:48:31;;;;;;;;;49.33;40.67;;;;;;;;5058648;28;45295;-76
2022/05/05 07:50:56;;;;;;;;;49.00;39.67;;;;;;;;5058520;28;45444;-74
2022/05/05 07:53:21;;;;;;;;;48.67;39.33;;;;;;;;5057640;28;45281;-75
2022/05/05 07:55:46;;;;;;;;;54.67;41.00;;;;;;;;5057373;28;45448;-76
2022/05/05 07:58:11;;;;;;;;;44.00;37.67;;;;;;;;5058099;28;45167;-76
2022/05/05 08:00:37;;;;;;;;;56.00;42.67;;;;;;;;5058547;28;45191;-75
2022/05/05 08:03:02;;;;;;;;;52.00;40.67;;;;;;;;5073689;28;45504;-75
2022/05/05 08:05:27;;;;;;;;;49.33;39.33;;;;;;;;5058306;28;46354;-75
2022/05/05 08:07:53;;;;;;;;;50.67;39.67;;;;;;;;5057858;28;45302;-75
2022/05/05 08:10:18;;;;;;;;;50.33;38.67;;;;;;;;5058131;28;45403;-76
2022/05/05 08:12:45;;;;;;;;;51.33;41.00;;;;;;;;5058315;28;45481;-75
2022/05/05 08:15:11;;;;;;;;;45.33;38.67;;;;;;;;5057596;28;46257;-76
2022/05/05 08:17:36;;;;;;;;;50.67;40.00;;;;;;;;5057870;28;45427;-76
2022/05/05 08:20:02;;;;;;;;;52.33;40.67;;;;;;;;5058030;28;45522;-74
2022/05/05 08:22:28;;;;;;;;;50.00;39.67;;;;;;;;5057899;28;45331;-75
2022/05/05 08:30:20;;;;;;;;;49.33;40.67;;;;;;;;5057390;28;45397;-76
2022/05/05 08:32:46;;;;;;;;;49.00;40.67;;;;;;;;5057823;28;45565;-75
2022/05/05 08:35:11;;;;;;;;;43.33;37.33;;;;;;;;5057888;28;46583;-74
2022/05/05 08:37:36;;;;;;;;;44.00;35.33;;;;;;;;5057438;28;45218;-74
2022/05/05 08:40:02;;;;;;;;;50.33;40.67;;;;;;;;5058067;28;45297;-76
2022/05/05 08:42:27;;;;;;;;;48.33;38.00;;;;;;;;5057877;28;45410;-75
2022/05/05 08:44:52;;;;;;;;;43.00;37.67;;;;;;;;5057204;28;46620;-75
2022/05/05 08:47:21;;;;;;;;;48.67;40.33;;;;;;;;5057502;28;45478;-74
2022/05/05 08:49:46;;;;;;;;;45.33;35.67;;;;;;;;5057604;28;45399;-74
2022/05/05 08:52:17;;;;;;;;;52.33;43.33;;;;;;;;5057614;28;45378;-74
2022/05/05 08:54:42;;;;;;;;;54.33;42.33;;;;;;;;5057472;28;45388;-74
2022/05/05 08:57:07;;;;;;;;;49.00;39.67;;;;;;;;5057209;28;45526;-75
2022/05/05 08:59:33;;;;;;;;;39.67;34.67;;;;;;;;5057504;28;45347;-74
2022/05/05 09:01:58;;;;;;;;;44.67;37.67;;;;;;;;5057573;28;45699;-75
2022/05/05 09:04:23;;;;;;;;;44.33;38.33;;;;;;;;5056962;28;45393;-75
2022/05/05 09:06:51;;;;;;;;;47.33;36.33;;;;;;;;5057460;28;45494;-74
2022/05/05 09:09:22;;;;;;;;;50.00;41.00;;;;;;;;5057351;28;45348;-74
2022/05/05 09:12:03;;;;;;;;;43.00;36.00;;;;;;;;5057454;28;45393;-75
2022/05/05 09:14:34;;;;;;;;;53.00;40.33;;;;;;;;5057184;28;45408;-74
2022/05/05 09:17:02;;;;;;;;;61.50;49.50;;;;;;;;5056976;28;45316;-75
2022/05/05 09:19:28;;;;;;;;;44.00;36.33;;;;;;;;5057235;28;45281;-74
2022/05/05 09:21:53;;;;;;;;;49.33;38.33;;;;;;;;5057432;28;45345;-74
2022/05/05 09:24:35;;;;;;;;;44.67;36.00;;;;;;;;5056948;28;46582;-75
2022/05/05 09:27:16;;;;;;;;;45.33;35.67;;;;;;;;5056198;28;45352;-76
2022/05/05 09:29:42;;;;;;;;;45.00;36.67;;;;;;;;5057030;28;45365;-75
2022/05/05 09:32:13;;;;;;;;;48.00;39.00;;;;;;;;5057343;28;45366;-74
2022/05/05 09:34:39;;;;;;;;;49.67;39.67;;;;;;;;5056733;28;46692;-75
2022/05/05 09:37:20;;;;;;;;;45.33;38.33;;;;;;;;5056696;28;45249;-76
2022/05/05 09:39:45;;;;;;;;;50.00;39.00;;;;;;;;5057193;28;45407;-74
2022/05/05 09:42:10;;;;;;;;;42.00;34.67;;;;;;;;5057077;28;45323;-76
2022/05/05 09:44:45;;;;;;;;;38.67;32.33;;;;;;;;5056880;28;45379;-76
2022/05/05 09:47:16;;;;;;;;;40.00;35.00;;;;;;;;5056909;28;45263;-75
2022/05/05 09:49:41;;;;;;;;;35.67;32.33;;;;;;;;5056662;28;45332;-75
2022/05/05 09:57:41;;;;;;;;;41.67;36.00;;;;;;;;5056288;28;45523;-76
2022/05/05 10:00:19;;;;;;;;;46.67;35.67;;;;;;;;5056893;28;45388;-76
2022/05/05 10:05:29;;;;;;;;;40.33;33.33;;;;;;;;5056436;28;45238;-75
2022/05/05 10:07:55;;;;;;;;;38.67;34.00;;;;;;;;5056228;28;45221;-75
2022/05/05 10:10:21;;;;;;;;;33.33;30.33;;;;;;;;5056823;28;45239;-75
2022/05/05 10:12:47;;;;;;;;;40.67;35.33;;;;;;;;5056794;28;45535;-74
2022/05/05 10:15:13;;;;;;;;;31.00;29.33;;;;;;;;5056597;28;45914;-75
2022/05/05 10:17:39;;;;;;;;;42.33;34.67;;;;;;;;5056085;28;45387;-76
2022/05/05 10:20:05;;;;;;;;;34.33;33.67;;;;;;;;5056543;28;45509;-75
2022/05/05 10:22:38;;;;;;;;;38.33;32.67;;;;;;;;5056642;28;45347;-76
2022/05/05 10:25:10;;;;;;;;;36.33;30.33;;;;;;;;5056377;28;45516;-77
2022/05/05 10:27:40;;;;;;;;;40.33;33.67;;;;;;;;5056427;28;45251;-76
2022/05/05 10:30:12;;;;;;;;;39.67;31.67;;;;;;;;5056647;28;45353;-76
2022/05/05 10:32:37;;;;;;;;;43.00;35.33;;;;;;;;5056366;28;45919;-75
2022/05/05 10:35:12;;;;;;;;;48.00;38.67;;;;;;;;5056149;28;46007;-76
2022/05/05 10:37:37;;;;;;;;;61.50;48.00;;;;;;;;5056177;28;45400;-76
2022/05/05 10:40:06;;;;;;;;;53.00;40.67;;;;;;;;5059440;28;45361;-75
2022/05/05 10:42:42;;;;;;;;;47.33;40.00;;;;;;;;5059704;28;45432;-76
2022/05/05 10:45:10;;;;;;;;;50.33;39.33;;;;;;;;5058322;28;46308;-75
2022/05/05 10:48:06;;;;;;;;;51.67;41.67;;;;;;;;5059378;28;45360;-76
2022/05/05 10:50:50;;;;;;;;;49.33;39.00;;;;;;;;5059672;28;45314;-75
2022/05/05 10:53:34;;;;;;;;;52.00;40.33;;;;;;;;5059574;28;45518;-76
2022/05/05 10:56:00;;;;;;;;;49.33;41.67;;;;;;;;5062531;28;46133;-75
2022/05/05 10:58:44;;;;;;;;;49.67;38.67;;;;;;;;5062123;27;45367;-77
2022/05/05 11:01:10;;;;;;;;;41.67;35.33;;;;;;;;5084378;27;45454;-75
2022/05/05 11:03:35;;;;;;;;;46.33;38.67;;;;;;;;5079769;28;45417;-76
2022/05/05 11:06:19;;;;;;;;;52.33;40.67;;;;;;;;5079314;28;46534;-75
2022/05/05 11:08:53;;;;;;;;;48.67;40.33;;;;;;;;5079211;27;45316;-75
2022/05/05 11:21:31;;;;;;;;;35.00;30.67;;;;;;;;5077621;28;45355;-76
2022/05/05 11:22:28;;;;;;;;;28.67;28.00;;;;;;;;5071214;28;45244;-74
2022/05/05 11:24:53;;;;;;;;;28.33;28.33;;;;;;;;5074363;27;45379;-75
2022/05/05 11:27:20;;;;;;;;;30.33;26.67;;;;;;;;5077600;28;46398;-75
2022/05/05 11:29:55;;;;;;;;;24.00;23.00;;;;;;;;5079504;27;45214;-76
2022/05/05 11:32:27;;;;;;;;;35.33;29.67;;;;;;;;5079191;27;45451;-74
2022/05/05 11:34:52;;;;;;;;;32.67;26.00;;;;;;;;5079441;27;45332;-76
2022/05/05 11:37:17;;;;;;;;;32.67;27.33;;;;;;;;5079103;28;46362;-76
2022/05/05 11:39:45;;;;;;;;;33.00;27.33;;;;;;;;5078872;27;45324;-76
2022/05/05 11:42:11;;;;;;;;;26.33;24.33;;;;;;;;5079322;28;45394;-76
2022/05/05 11:44:36;;;;;;;;;26.67;23.67;;;;;;;;5078880;27;45515;-75
2022/05/05 11:47:13;;;;;;;;;28.33;25.33;;;;;;;;5078783;27;46601;-76
2022/05/05 11:49:39;;;;;;;;;26.33;25.00;;;;;;;;5078316;27;45457;-75
2022/05/05 11:52:05;;;;;;;;;29.67;23.67;;;;;;;;5078956;27;45322;-75
2022/05/05 11:54:32;;;;;;;;;31.33;22.33;;;;;;;;5078363;27;45332;-76
2022/05/05 11:56:57;;;;;;;;;24.33;21.67;;;;;;;;5078863;27;46137;-75
2022/05/05 12:02:11;;;;;;;;;25.67;22.00;;;;;;;;5078680;28;45411;-76
2022/05/05 12:04:40;;;;;;;;;30.33;24.67;;;;;;;;5078727;27;45235;-75
2022/05/05 12:07:08;;;;;;;;;21.33;20.67;;;;;;;;5075986;28;46576;-75
2022/05/05 12:09:33;;;;;;;;;25.33;22.00;;;;;;;;5077615;27;45418;-76
2022/05/05 12:12:11;;;;;;;;;27.33;26.67;;;;;;;;5078662;27;45363;-75
2022/05/05 12:14:44;;;;;;;;;19.67;18.67;;;;;;;;5078285;27;45328;-75
2022/05/05 12:17:13;;;;;;;;;27.33;24.00;;;;;;;;5077692;27;46556;-76
2022/05/05 12:19:48;;;;;;;;;25.67;25.00;;;;;;;;5078228;27;45299;-75
2022/05/05 12:22:14;;;;;;;;;27.33;22.33;;;;;;;;5078371;27;45430;-76
2022/05/05 12:24:43;;;;;;;;;21.00;19.33;;;;;;;;5078034;27;45352;-76
2022/05/05 12:27:10;;;;;;;;;25.33;24.67;;;;;;;;5078241;27;47354;-76
2022/05/05 12:29:36;;;;;;;;;29.67;24.00;;;;;;;;5078109;27;45431;-77
2022/05/05 12:32:01;;;;;;;;;27.67;23.33;;;;;;;;5078079;27;45342;-75
2022/05/05 12:34:27;;;;;;;;;24.33;22.00;;;;;;;;5078452;28;45313;-76
2022/05/05 12:37:10;;;;;;;;;24.33;20.67;;;;;;;;5077664;27;46456;-74
2022/05/05 12:39:53;;;;;;;;;22.67;22.67;;;;;;;;5078048;27;45225;-74
2022/05/05 12:42:21;;;;;;;;;18.67;18.67;;;;;;;;5077855;27;45494;-75
2022/05/05 12:44:49;;;;;;;;;22.67;20.00;;;;;;;;5077002;27;45563;-75
2022/05/05 12:47:15;;;;;;;;;23.00;22.00;;;;;;;;5077722;27;46524;-75
2022/05/05 12:49:44;;;;;;;;;24.67;22.33;;;;;;;;5076067;28;46512;-75
2022/05/05 12:59:36;;;;;;;;;30.33;25.67;;;;;;;;5077396;27;45350;-75
2022/05/05 13:00:22;;;;;;;;;20.33;17.67;;;;;;;;5077977;27;45319;-75
2022/05/05 13:02:48;;;;;;;;;15.33;14.00;;;;;;;;5079313;27;45382;-75
2022/05/05 13:05:13;;;;;;;;;16.33;15.33;;;;;;;;5076523;28;45477;-75
2022/05/05 13:07:38;;;;;;;;;17.67;16.00;;;;;;;;5076018;27;46345;-75
2022/05/05 13:10:04;;;;;;;;;22.67;21.67;;;;;;;;5076003;28;45335;-75
2022/05/05 13:12:29;;;;;;;;;16.33;15.67;;;;;;;;5077008;27;45280;-75
2022/05/05 13:14:54;;;;;;;;;21.00;17.00;;;;;;;;5076329;28;45320;-75
2022/05/05 13:17:19;;;;;;;;;22.67;20.33;;;;;;;;5077588;27;45429;-75
2022/05/05 13:19:45;;;;;;;;;22.00;21.67;;;;;;;;5077605;28;45452;-76
2022/05/05 13:22:10;;;;;;;;;22.00;19.33;;;;;;;;5077649;28;45696;-74
2022/05/05 13:24:36;;;;;;;;;21.33;20.67;;;;;;;;5076624;28;45217;-77
2022/05/05 13:27:02;;;;;;;;;17.67;14.00;;;;;;;;5074496;27;47247;-74
2022/05/05 13:29:28;;;;;;;;;20.33;17.00;;;;;;;;5072963;27;45533;-75
2022/05/05 13:31:53;;;;;;;;;19.00;17.00;;;;;;;;5059155;28;45657;-74
2022/05/05 13:34:19;;;;;;;;;20.33;18.67;;;;;;;;5077644;27;45337;-77
2022/05/05 13:36:44;;;;;;;;;45.00;35.33;;;;;;;;5077930;27;46652;-75
2022/05/05 13:39:09;;;;;;;;;16.67;16.67;;;;;;;;5066602;28;45336;-75
2022/05/05 13:41:35;;;;;;;;;15.00;14.67;;;;;;;;5058940;27;45280;-76
2022/05/05 13:44:01;;;;;;;;;21.33;17.00;;;;;;;;5057339;28;45485;-76
2022/05/05 13:46:26;;;;;;;;;26.00;20.00;;;;;;;;5055432;28;46653;-76
2022/05/05 13:48:51;;;;;;;;;23.00;18.33;;;;;;;;5056885;28;45453;-76
2022/05/05 13:51:16;;;;;;;;;18.67;16.67;;;;;;;;5056974;28;45429;-76
2022/05/05 13:53:42;;;;;;;;;17.33;16.33;;;;;;;;5056998;28;45355;-75
2022/05/05 13:56:09;;;;;;;;;17.67;14.67;;;;;;;;5056133;28;46019;-77
2022/05/05 13:58:34;;;;;;;;;22.00;17.67;;;;;;;;5055270;28;45354;-76
2022/05/05 14:00:59;;;;;;;;;12.67;12.67;;;;;;;;5056782;28;45412;-76
2022/05/05 14:03:25;;;;;;;;;19.00;18.67;;;;;;;;5057046;28;45542;-76
2022/05/05 14:05:50;;;;;;;;;16.67;16.33;;;;;;;;5077359;27;47356;-75
2022/05/05 14:13:43;;;;;;;;;19.00;15.00;;;;;;;;5078594;28;45195;-78
2022/05/05 14:16:08;;;;;;;;;14.33;13.67;;;;;;;;5076033;27;46158;-77
2022/05/05 14:18:33;;;;;;;;;15.67;12.67;;;;;;;;5079800;28;45393;-80
2022/05/05 14:20:59;;;;;;;;;17.33;13.67;;;;;;;;5079895;28;45759;-78
2022/05/05 14:23:24;;;;;;;;;19.00;15.33;;;;;;;;5080272;27;45371;-76
2022/05/05 14:25:49;;;;;;;;;16.33;14.00;;;;;;;;5078888;28;46425;-75
2022/05/05 14:28:15;;;;;;;;;21.33;18.33;;;;;;;;5065503;28;45392;-76
2022/05/05 14:30:40;;;;;;;;;16.67;15.33;;;;;;;;5074516;28;45868;-75
2022/05/05 14:33:05;;;;;;;;;21.67;15.00;;;;;;;;5059692;28;45354;-78
2022/05/05 14:35:30;;;;;;;;;16.33;14.00;;;;;;;;5058120;28;46422;-77
2022/05/05 14:37:56;;;;;;;;;13.33;12.33;;;;;;;;5059404;28;45309;-76
2022/05/05 14:40:21;;;;;;;;;17.00;15.33;;;;;;;;5060227;27;45289;-76
2022/05/05 14:42:47;;;;;;;;;17.33;13.67;;;;;;;;5059608;28;45450;-77
2022/05/05 14:45:17;;;;;;;;;19.33;17.33;;;;;;;;5059237;28;45484;-78
2022/05/05 14:47:45;;;;;;;;;14.00;12.33;;;;;;;;5064217;28;45390;-78
2022/05/05 14:50:11;;;;;;;;;32.00;30.00;;;;;;;;5079245;27;45454;-77
2022/05/05 14:52:36;;;;;;;;;17.33;17.33;;;;;;;;5079577;28;45347;-74
2022/05/05 14:55:01;;;;;;;;;21.00;18.00;;;;;;;;5068822;27;46552;-77
2022/05/05 14:57:27;;;;;;;;;20.67;18.33;;;;;;;;5058864;28;45379;-75
2022/05/05 14:59:54;;;;;;;;;16.33;14.00;;;;;;;;5072992;28;45752;-77
2022/05/05 15:02:19;;;;;;;;;18.67;15.67;;;;;;;;5076402;28;45551;-75
2022/05/05 15:04:45;;;;;;;;;15.00;14.00;;;;;;;;5075940;27;45409;-75
2022/05/05 15:07:10;;;;;;;;;22.00;16.67;;;;;;;;5059606;27;45344;-75